createdAt,value
2023-05-09T00:00:18.816Z,420.00
2023-05-09T00:01:18.789Z,421.00
2023-05-09T00:02:18.800Z,421.00
2023-05-09T00:03:18.764Z,421.00
2023-05-09T00:04:18.789Z,420.00
2023-05-09T00:05:18.744Z,422.00
2023-05-09T00:06:18.729Z,421.00
2023-05-09T00:07:18.717Z,422.00
2023-05-09T00:08:18.689Z,425.00
2023-05-09T00:09:18.700Z,424.00
2023-05-09T00:10:18.729Z,425.00
2023-05-09T00:11:18.710Z,423.00
2023-05-09T00:12:18.753Z,423.00
2023-05-09T00:13:18.761Z,423.00
2023-05-09T00:14:18.705Z,422.00
2023-05-09T00:15:18.674Z,423.00
2023-05-09T00:16:18.831Z,424.00
2023-05-09T00:17:18.705Z,422.00
2023-05-09T00:18:18.687Z,420.00
2023-05-09T00:19:18.669Z,421.00
2023-05-09T00:20:18.707Z,420.00
2023-05-09T00:21:18.705Z,422.00
2023-05-09T00:22:18.664Z,422.00
2023-05-09T00:23:18.684Z,422.00
2023-05-09T00:24:18.682Z,423.00
2023-05-09T00:25:18.691Z,420.00
2023-05-09T00:26:18.695Z,418.00
2023-05-09T00:27:18.725Z,415.00
2023-05-09T00:28:18.684Z,415.00
2023-05-09T00:29:18.677Z,414.00
2023-05-09T00:30:18.671Z,417.00
2023-05-09T00:31:18.697Z,417.00
2023-05-09T00:32:18.813Z,418.00
2023-05-09T00:33:18.695Z,418.00
2023-05-09T00:34:18.704Z,419.00
2023-05-09T00:35:18.675Z,419.00
2023-05-09T00:36:18.720Z,417.00
2023-05-09T00:37:18.654Z,418.00
2023-05-09T00:38:18.665Z,416.00
2023-05-09T00:39:18.652Z,415.00
2023-05-09T00:40:18.699Z,414.00
2023-05-09T00:41:18.665Z,415.00
2023-05-09T00:42:18.676Z,417.00
2023-05-09T00:43:18.652Z,417.00
2023-05-09T00:44:18.709Z,416.00
2023-05-09T00:45:18.686Z,416.00
2023-05-09T00:46:18.671Z,418.00
2023-05-09T00:47:18.708Z,418.00
2023-05-09T00:48:18.735Z,418.00
2023-05-09T00:49:18.617Z,418.00
2023-05-09T00:50:18.659Z,417.00
2023-05-09T00:51:18.675Z,417.00
2023-05-09T00:52:18.666Z,417.00
2023-05-09T00:53:18.694Z,417.00
2023-05-09T00:54:18.653Z,416.00
2023-05-09T00:55:18.695Z,417.00
2023-05-09T00:56:18.633Z,416.00
2023-05-09T00:57:18.681Z,417.00
2023-05-09T00:58:18.668Z,419.00
2023-05-09T00:59:18.644Z,421.00
2023-05-09T01:00:18.656Z,420.00
2023-05-09T01:01:18.737Z,419.00
2023-05-09T01:02:18.716Z,421.00
2023-05-09T01:03:18.718Z,423.00
2023-05-09T01:04:18.775Z,422.00
2023-05-09T01:05:18.665Z,420.00
2023-05-09T01:06:18.659Z,418.00
2023-05-09T01:07:18.660Z,417.00
2023-05-09T01:08:18.679Z,416.00
2023-05-09T01:09:18.696Z,418.00
2023-05-09T01:10:18.686Z,420.00
2023-05-09T01:11:18.675Z,422.00
2023-05-09T01:12:18.664Z,422.00
2023-05-09T01:13:18.740Z,422.00
2023-05-09T01:14:18.669Z,423.00
2023-05-09T01:15:18.682Z,424.00
2023-05-09T01:16:18.743Z,424.00
2023-05-09T01:17:18.671Z,424.00
2023-05-09T01:18:18.673Z,423.00
2023-05-09T01:19:18.697Z,423.00
2023-05-09T01:20:18.778Z,422.00
2023-05-09T01:21:18.667Z,423.00
2023-05-09T01:22:18.671Z,424.00
2023-05-09T01:23:18.655Z,423.00
2023-05-09T01:24:18.673Z,425.00
2023-05-09T01:25:18.617Z,424.00
2023-05-09T01:26:18.622Z,422.00
2023-05-09T01:27:18.630Z,422.00
2023-05-09T01:28:18.670Z,422.00
2023-05-09T01:29:18.637Z,420.00
2023-05-09T01:30:18.639Z,421.00
2023-05-09T01:31:18.667Z,421.00
2023-05-09T01:32:18.635Z,421.00
2023-05-09T01:33:18.620Z,420.00
2023-05-09T01:34:18.603Z,422.00
2023-05-09T01:35:18.618Z,422.00
2023-05-09T01:36:18.722Z,420.00
2023-05-09T01:37:18.622Z,418.00
2023-05-09T01:38:18.631Z,419.00
2023-05-09T01:39:18.647Z,420.00
2023-05-09T01:40:18.648Z,420.00
2023-05-09T01:41:18.683Z,420.00
2023-05-09T01:42:18.672Z,421.00
2023-05-09T01:43:18.697Z,420.00
2023-05-09T01:44:18.684Z,421.00
2023-05-09T01:45:18.660Z,422.00
2023-05-09T01:46:18.690Z,422.00
2023-05-09T01:47:18.705Z,422.00
2023-05-09T01:48:18.684Z,422.00
2023-05-09T01:49:18.675Z,420.00
2023-05-09T01:50:18.672Z,420.00
2023-05-09T01:51:18.657Z,423.00
2023-05-09T01:52:18.771Z,423.00
2023-05-09T01:53:18.635Z,424.00
2023-05-09T01:54:18.669Z,423.00
2023-05-09T01:55:18.665Z,424.00
2023-05-09T01:56:18.642Z,422.00
2023-05-09T01:57:18.669Z,423.00
2023-05-09T01:58:18.689Z,423.00
2023-05-09T01:59:18.698Z,423.00
2023-05-09T02:00:18.652Z,422.00
2023-05-09T02:01:18.751Z,422.00
2023-05-09T02:02:18.674Z,422.00
2023-05-09T02:03:18.659Z,420.00
2023-05-09T02:04:18.660Z,420.00
2023-05-09T02:05:18.656Z,420.00
2023-05-09T02:06:18.658Z,420.00
2023-05-09T02:07:18.660Z,421.00
2023-05-09T02:08:18.740Z,421.00
2023-05-09T02:09:18.655Z,418.00
2023-05-09T02:10:18.715Z,416.00
2023-05-09T02:11:18.650Z,419.00
2023-05-09T02:12:18.654Z,419.00
2023-05-09T02:13:18.687Z,417.00
2023-05-09T02:14:18.637Z,422.00
2023-05-09T02:15:18.640Z,421.00
2023-05-09T02:16:20.633Z,421.00
2023-05-09T02:17:18.672Z,421.00
2023-05-09T02:18:18.676Z,422.00
2023-05-09T02:19:18.672Z,422.00
2023-05-09T02:20:18.650Z,422.00
2023-05-09T02:21:18.678Z,423.00
2023-05-09T02:22:18.683Z,426.00
2023-05-09T02:23:18.688Z,424.00
2023-05-09T02:24:18.776Z,427.00
2023-05-09T02:25:18.728Z,429.00
2023-05-09T02:26:18.657Z,429.00
2023-05-09T02:27:18.703Z,429.00
2023-05-09T02:28:18.684Z,432.00
2023-05-09T02:29:18.701Z,431.00
2023-05-09T02:30:18.722Z,428.00
2023-05-09T02:31:18.683Z,430.00
2023-05-09T02:32:18.717Z,429.00
2023-05-09T02:33:18.677Z,427.00
2023-05-09T02:34:18.684Z,424.00
2023-05-09T02:35:18.709Z,424.00
2023-05-09T02:36:18.656Z,424.00
2023-05-09T02:37:18.659Z,422.00
2023-05-09T02:38:18.671Z,425.00
2023-05-09T02:39:18.684Z,424.00
2023-05-09T02:40:18.776Z,423.00
2023-05-09T02:41:18.724Z,422.00
2023-05-09T02:42:18.716Z,422.00
2023-05-09T02:43:18.718Z,423.00
2023-05-09T02:44:18.733Z,423.00
2023-05-09T02:45:18.732Z,423.00
2023-05-09T02:46:18.733Z,422.00
2023-05-09T02:47:18.709Z,423.00
2023-05-09T02:48:18.692Z,424.00
2023-05-09T02:49:31.433Z,424.00
2023-05-09T02:50:19.665Z,424.00
2023-05-09T02:51:18.626Z,425.00
2023-05-09T02:52:18.611Z,426.00
2023-05-09T02:53:18.533Z,426.00
2023-05-09T02:54:18.527Z,425.00
2023-05-09T02:55:18.454Z,425.00
2023-05-09T02:56:18.516Z,423.00
2023-05-09T02:57:18.381Z,424.00
2023-05-09T02:58:18.337Z,426.00
2023-05-09T02:59:18.322Z,430.00
2023-05-09T03:00:18.231Z,430.00
2023-05-09T03:01:18.270Z,428.00
2023-05-09T03:02:18.149Z,427.00
2023-05-09T03:03:18.450Z,428.00
2023-05-09T03:04:18.162Z,425.00
2023-05-09T03:05:18.196Z,424.00
2023-05-09T03:06:18.178Z,423.00
2023-05-09T03:07:18.172Z,424.00
2023-05-09T03:08:18.181Z,421.00
2023-05-09T03:09:18.170Z,424.00
2023-05-09T03:10:18.201Z,425.00
2023-05-09T03:11:18.198Z,425.00
2023-05-09T03:12:18.281Z,423.00
2023-05-09T03:13:18.224Z,424.00
2023-05-09T03:14:18.184Z,424.00
2023-05-09T03:15:18.200Z,424.00
2023-05-09T03:16:18.262Z,425.00
2023-05-09T03:17:18.170Z,425.00
2023-05-09T03:18:18.206Z,427.00
2023-05-09T03:19:18.225Z,426.00
2023-05-09T03:20:18.237Z,424.00
2023-05-09T03:21:18.215Z,422.00
2023-05-09T03:22:18.180Z,421.00
2023-05-09T03:23:18.246Z,420.00
2023-05-09T03:24:18.197Z,418.00
2023-05-09T03:25:18.195Z,423.00
2023-05-09T03:26:18.182Z,424.00
2023-05-09T03:27:18.177Z,423.00
2023-05-09T03:28:18.261Z,423.00
2023-05-09T03:29:18.181Z,423.00
2023-05-09T03:30:18.227Z,424.00
2023-05-09T03:31:18.245Z,425.00
2023-05-09T03:32:18.240Z,424.00
2023-05-09T03:33:18.221Z,423.00
2023-05-09T03:34:18.225Z,420.00
2023-05-09T03:35:18.192Z,418.00
2023-05-09T03:36:18.226Z,417.00
2023-05-09T03:37:18.229Z,417.00
2023-05-09T03:38:18.206Z,418.00
2023-05-09T03:39:18.212Z,419.00
2023-05-09T03:40:18.229Z,422.00
2023-05-09T03:41:18.249Z,424.00
2023-05-09T03:42:18.257Z,426.00
2023-05-09T03:43:18.244Z,427.00
2023-05-09T03:44:18.312Z,426.00
2023-05-09T03:45:18.219Z,428.00
2023-05-09T03:46:18.205Z,430.00
2023-05-09T03:47:18.218Z,430.00
2023-05-09T03:48:18.213Z,432.00
2023-05-09T03:49:18.194Z,433.00
2023-05-09T03:50:18.277Z,431.00
2023-05-09T03:51:18.214Z,427.00
2023-05-09T03:52:18.219Z,428.00
2023-05-09T03:53:18.206Z,429.00
2023-05-09T03:54:18.204Z,428.00
2023-05-09T03:55:18.202Z,428.00
2023-05-09T03:56:18.205Z,429.00
2023-05-09T03:57:18.209Z,431.00
2023-05-09T03:58:18.185Z,430.00
2023-05-09T03:59:18.186Z,431.00
2023-05-09T04:00:18.293Z,431.00
2023-05-09T04:01:18.241Z,431.00
2023-05-09T04:02:18.299Z,427.00
2023-05-09T04:03:18.296Z,429.00
2023-05-09T04:04:18.256Z,428.00
2023-05-09T04:05:18.281Z,427.00
2023-05-09T04:06:18.217Z,424.00
2023-05-09T04:07:18.254Z,425.00
2023-05-09T04:08:18.253Z,425.00
2023-05-09T04:09:18.278Z,426.00
2023-05-09T04:10:18.242Z,427.00
2023-05-09T04:11:18.286Z,426.00
2023-05-09T04:12:18.236Z,426.00
2023-05-09T04:13:18.292Z,426.00
2023-05-09T04:14:18.295Z,428.00
2023-05-09T04:15:18.281Z,429.00
2023-05-09T04:16:18.419Z,427.00
2023-05-09T04:17:18.284Z,429.00
2023-05-09T04:18:18.263Z,428.00
2023-05-09T04:19:18.281Z,428.00
2023-05-09T04:20:18.275Z,431.00
2023-05-09T04:21:18.295Z,428.00
2023-05-09T04:22:18.301Z,430.00
2023-05-09T04:23:18.302Z,431.00
2023-05-09T04:24:18.299Z,428.00
2023-05-09T04:25:18.313Z,430.00
2023-05-09T04:26:18.323Z,431.00
2023-05-09T04:27:18.302Z,431.00
2023-05-09T04:28:18.308Z,429.00
2023-05-09T04:29:18.336Z,428.00
2023-05-09T04:30:18.334Z,427.00
2023-05-09T04:31:18.446Z,431.00
2023-05-09T04:32:18.501Z,434.00
2023-05-09T04:33:18.350Z,433.00
2023-05-09T04:34:18.353Z,432.00
2023-05-09T04:35:20.506Z,433.00
2023-05-09T04:36:18.399Z,430.00
2023-05-09T04:37:18.428Z,430.00
2023-05-09T04:38:18.419Z,430.00
2023-05-09T04:39:18.441Z,432.00
2023-05-09T04:40:18.439Z,432.00
2023-05-09T04:41:18.436Z,433.00
2023-05-09T04:42:18.397Z,435.00
2023-05-09T04:43:18.452Z,432.00
2023-05-09T04:44:18.426Z,433.00
2023-05-09T04:45:18.448Z,434.00
2023-05-09T04:46:18.457Z,431.00
2023-05-09T04:47:18.438Z,430.00
2023-05-09T04:48:18.490Z,431.00
2023-05-09T04:49:18.459Z,432.00
2023-05-09T04:50:18.432Z,432.00
2023-05-09T04:51:18.445Z,430.00
2023-05-09T04:52:18.441Z,430.00
2023-05-09T04:53:18.446Z,426.00
2023-05-09T04:54:18.446Z,427.00
2023-05-09T04:55:18.444Z,429.00
2023-05-09T04:56:18.458Z,432.00
2023-05-09T04:57:19.142Z,433.00
2023-05-09T04:58:18.471Z,433.00
2023-05-09T04:59:18.511Z,436.00
2023-05-09T05:00:18.498Z,437.00
2023-05-09T05:01:27.995Z,436.00
2023-05-09T05:02:18.431Z,435.00
2023-05-09T05:03:18.416Z,434.00
2023-05-09T05:04:18.486Z,434.00
2023-05-09T05:05:24.585Z,434.00
2023-05-09T05:06:19.275Z,434.00
2023-05-09T05:07:18.226Z,436.00
2023-05-09T05:08:18.230Z,436.00
2023-05-09T05:09:18.094Z,438.00
2023-05-09T05:10:18.107Z,437.00
2023-05-09T05:11:18.082Z,436.00
2023-05-09T05:12:17.985Z,437.00
2023-05-09T05:13:17.980Z,436.00
2023-05-09T05:14:17.863Z,435.00
2023-05-09T05:15:17.825Z,436.00
2023-05-09T05:16:17.835Z,435.00
2023-05-09T05:17:17.692Z,434.00
2023-05-09T05:18:17.734Z,434.00
2023-05-09T05:19:17.731Z,434.00
2023-05-09T05:20:17.823Z,433.00
2023-05-09T05:21:17.748Z,432.00
2023-05-09T05:22:17.766Z,433.00
2023-05-09T05:23:17.724Z,432.00
2023-05-09T05:24:17.732Z,431.00
2023-05-09T05:25:17.814Z,432.00
2023-05-09T05:26:17.774Z,433.00
2023-05-09T05:27:17.750Z,432.00
2023-05-09T05:28:17.732Z,432.00
2023-05-09T05:29:17.752Z,432.00
2023-05-09T05:30:17.738Z,434.00
2023-05-09T05:31:17.763Z,432.00
2023-05-09T05:32:17.986Z,433.00
2023-05-09T05:33:17.734Z,434.00
2023-05-09T05:34:17.727Z,436.00
2023-05-09T05:35:17.830Z,435.00
2023-05-09T05:36:17.803Z,439.00
2023-05-09T05:37:17.976Z,482.00
2023-05-09T05:38:17.715Z,507.00
2023-05-09T05:39:17.713Z,552.00
2023-05-09T05:40:17.741Z,550.00
2023-05-09T05:41:17.733Z,542.00
2023-05-09T05:42:17.986Z,563.00
2023-05-09T05:43:18.533Z,602.00
2023-05-09T05:44:18.472Z,611.00
2023-05-09T05:45:24.780Z,672.00
2023-05-09T05:46:17.775Z,671.00
2023-05-09T05:47:17.638Z,678.00
2023-05-09T05:48:17.681Z,624.00
2023-05-09T05:49:17.565Z,635.00
2023-05-09T05:50:17.530Z,731.00
2023-05-09T05:51:17.466Z,800.00
2023-05-09T05:52:17.499Z,837.00
2023-05-09T05:53:17.385Z,848.00
2023-05-09T05:54:17.334Z,861.00
2023-05-09T05:55:17.471Z,878.00
2023-05-09T05:56:17.247Z,911.00
2023-05-09T05:57:17.229Z,938.00
2023-05-09T05:58:17.190Z,948.00
2023-05-09T05:59:17.203Z,959.00
2023-05-09T06:00:17.091Z,974.00
2023-05-09T06:01:17.019Z,1001.00
2023-05-09T06:02:17.016Z,1016.00
2023-05-09T06:03:17.149Z,1031.00
2023-05-09T06:04:16.985Z,1038.00
2023-05-09T06:05:17.008Z,1043.00
2023-05-09T06:06:16.770Z,1084.00
2023-05-09T06:07:17.020Z,1100.00
2023-05-09T06:08:16.785Z,1106.00
2023-05-09T06:09:16.681Z,1117.00
2023-05-09T06:10:16.610Z,1155.00
2023-05-09T06:11:16.569Z,1159.00
2023-05-09T06:12:16.577Z,1098.00
2023-05-09T06:13:16.488Z,991.00
2023-05-09T06:14:16.380Z,881.00
2023-05-09T06:15:16.615Z,1001.00
2023-05-09T06:16:20.073Z,1086.00
2023-05-09T06:17:16.323Z,1156.00
2023-05-09T06:18:16.213Z,1006.00
2023-05-09T06:19:16.211Z,1110.00
2023-05-09T06:20:16.067Z,1112.00
2023-05-09T06:21:16.064Z,1117.00
2023-05-09T06:22:16.022Z,1117.00
2023-05-09T06:23:15.946Z,1119.00
2023-05-09T06:24:27.563Z,1039.00
2023-05-09T06:25:17.041Z,1077.00
2023-05-09T06:26:15.821Z,1093.00
2023-05-09T06:27:15.796Z,1096.00
2023-05-09T06:28:15.739Z,1107.00
2023-05-09T06:29:15.676Z,1110.00
2023-05-09T06:30:25.672Z,1111.00
2023-05-09T06:31:16.569Z,1113.00
2023-05-09T06:32:15.506Z,1122.00
2023-05-09T06:33:15.560Z,1125.00
2023-05-09T06:34:15.409Z,1122.00
2023-05-09T06:35:15.593Z,1125.00
2023-05-09T06:36:15.343Z,1065.00
2023-05-09T06:37:15.222Z,1053.00
2023-05-09T06:38:15.216Z,974.00
2023-05-09T06:39:15.144Z,910.00
2023-05-09T06:40:15.154Z,726.00
2023-05-09T06:41:15.004Z,727.00
2023-05-09T06:42:14.986Z,723.00
2023-05-09T06:43:14.910Z,713.00
2023-05-09T06:44:14.872Z,639.00
2023-05-09T06:45:15.036Z,640.00
2023-05-09T06:46:14.780Z,655.00
2023-05-09T06:47:14.744Z,694.00
2023-05-09T06:48:15.060Z,687.00
2023-05-09T06:49:14.592Z,650.00
2023-05-09T06:50:14.596Z,723.00
2023-05-09T06:51:14.545Z,730.00
2023-05-09T06:52:15.127Z,739.00
2023-05-09T06:53:14.509Z,670.00
2023-05-09T06:54:14.523Z,648.00
2023-05-09T06:55:14.623Z,560.00
2023-05-09T06:56:14.565Z,556.00
2023-05-09T06:57:14.505Z,546.00
2023-05-09T06:58:14.483Z,521.00
2023-05-09T06:59:14.517Z,527.00
2023-05-09T07:00:14.488Z,532.00
2023-05-09T07:01:14.515Z,534.00
2023-05-09T07:02:14.522Z,534.00
2023-05-09T07:03:14.538Z,555.00
2023-05-09T07:04:14.558Z,531.00
2023-05-09T07:05:14.874Z,530.00
2023-05-09T07:06:14.542Z,603.00
2023-05-09T07:07:14.579Z,529.00
2023-05-09T07:08:14.601Z,528.00
2023-05-09T07:09:14.584Z,530.00
2023-05-09T07:10:14.594Z,531.00
2023-05-09T07:11:14.609Z,535.00
2023-05-09T07:12:14.661Z,568.00
2023-05-09T07:13:15.139Z,551.00
2023-05-09T07:14:14.679Z,545.00
2023-05-09T07:15:18.517Z,543.00
2023-05-09T07:16:15.698Z,541.00
2023-05-09T07:17:22.769Z,548.00
2023-05-09T07:18:16.087Z,571.00
2023-05-09T07:19:14.612Z,583.00
2023-05-09T07:20:14.471Z,619.00
2023-05-09T07:21:14.476Z,617.00
2023-05-09T07:22:14.437Z,577.00
2023-05-09T07:23:14.374Z,565.00
2023-05-09T07:24:14.321Z,575.00
2023-05-09T07:25:14.460Z,581.00
2023-05-09T07:26:14.229Z,618.00
2023-05-09T07:27:14.244Z,596.00
2023-05-09T07:28:14.342Z,607.00
2023-05-09T07:29:14.190Z,654.00
2023-05-09T07:30:14.383Z,654.00
2023-05-09T07:31:14.273Z,634.00
2023-05-09T07:32:14.374Z,754.00
2023-05-09T07:33:14.641Z,772.00
2023-05-09T07:34:14.283Z,778.00
2023-05-09T07:35:14.496Z,778.00
2023-05-09T07:36:14.301Z,782.00
2023-05-09T07:37:15.427Z,789.00
2023-05-09T07:38:14.331Z,732.00
2023-05-09T07:39:14.329Z,778.00
2023-05-09T07:40:14.644Z,839.00
2023-05-09T07:41:14.325Z,841.00
2023-05-09T07:42:14.332Z,801.00
2023-05-09T07:43:14.553Z,808.00
2023-05-09T07:44:14.646Z,804.00
2023-05-09T07:45:14.512Z,818.00
2023-05-09T07:46:14.372Z,811.00
2023-05-09T07:47:14.361Z,805.00
2023-05-09T07:48:14.383Z,807.00
2023-05-09T07:49:14.367Z,801.00
2023-05-09T07:50:14.310Z,781.00
2023-05-09T07:51:14.344Z,733.00
2023-05-09T07:52:14.341Z,726.00
2023-05-09T07:53:14.369Z,715.00
2023-05-09T07:54:14.358Z,651.00
2023-05-09T07:55:14.657Z,600.00
2023-05-09T07:56:14.356Z,600.00
2023-05-09T07:57:14.409Z,599.00
2023-05-09T07:58:14.409Z,661.00
2023-05-09T07:59:14.425Z,628.00
2023-05-09T08:00:14.493Z,648.00
2023-05-09T08:01:14.398Z,613.00
2023-05-09T08:02:14.481Z,574.00
2023-05-09T08:03:14.496Z,586.00
2023-05-09T08:04:14.486Z,587.00
2023-05-09T08:05:14.627Z,687.00
2023-05-09T08:06:14.499Z,632.00
2023-05-09T08:07:14.527Z,768.00
2023-05-09T08:08:14.531Z,726.00
2023-05-09T08:09:14.582Z,650.00
2023-05-09T08:10:14.534Z,638.00
2023-05-09T08:11:14.608Z,653.00
2023-05-09T08:12:14.553Z,747.00
2023-05-09T08:13:14.545Z,777.00
2023-05-09T08:14:15.644Z,778.00
2023-05-09T08:15:14.762Z,785.00
2023-05-09T08:16:14.777Z,803.00
2023-05-09T08:17:14.544Z,822.00
2023-05-09T08:18:14.576Z,850.00
2023-05-09T08:19:14.555Z,875.00
2023-05-09T08:20:14.571Z,885.00
2023-05-09T08:21:14.507Z,896.00
2023-05-09T08:22:14.486Z,952.00
2023-05-09T08:23:14.423Z,973.00
2023-05-09T08:24:14.585Z,986.00
2023-05-09T08:25:14.481Z,1001.00
2023-05-09T08:26:14.337Z,1022.00
2023-05-09T08:27:14.343Z,1040.00
2023-05-09T08:28:14.326Z,1088.00
2023-05-09T08:29:14.653Z,1105.00
2023-05-09T08:30:14.286Z,1116.00
2023-05-09T08:31:14.341Z,1128.00
2023-05-09T08:32:14.418Z,1137.00
2023-05-09T08:33:14.315Z,1134.00
2023-05-09T08:34:14.598Z,1019.00
2023-05-09T08:35:14.561Z,1019.00
2023-05-09T08:36:14.251Z,971.00
2023-05-09T08:37:15.421Z,940.00
2023-05-09T08:38:14.182Z,874.00
2023-05-09T08:39:14.167Z,852.00
2023-05-09T08:40:14.345Z,857.00
2023-05-09T08:41:14.140Z,907.00
2023-05-09T08:42:14.164Z,897.00
2023-05-09T08:43:14.117Z,878.00
2023-05-09T08:44:14.129Z,912.00
2023-05-09T08:45:14.076Z,903.00
2023-05-09T08:46:14.181Z,890.00
2023-05-09T08:47:14.085Z,861.00
2023-05-09T08:48:14.167Z,852.00
2023-05-09T08:49:14.141Z,826.00
2023-05-09T08:50:14.366Z,812.00
2023-05-09T08:51:14.062Z,798.00
2023-05-09T08:52:14.017Z,864.00
2023-05-09T08:53:13.957Z,864.00
2023-05-09T08:54:14.079Z,767.00
2023-05-09T08:55:13.956Z,604.00
2023-05-09T08:56:13.985Z,564.00
2023-05-09T08:57:13.943Z,558.00
2023-05-09T08:58:13.935Z,561.00
2023-05-09T08:59:13.959Z,600.00
2023-05-09T09:00:14.174Z,629.00
2023-05-09T09:01:14.046Z,624.00
2023-05-09T09:02:13.985Z,628.00
2023-05-09T09:03:14.012Z,577.00
2023-05-09T09:04:13.968Z,581.00
2023-05-09T09:05:34.140Z,668.00
2023-05-09T09:06:14.878Z,683.00
2023-05-09T09:07:13.810Z,638.00
2023-05-09T09:08:13.770Z,619.00
2023-05-09T09:09:13.714Z,637.00
2023-05-09T09:10:13.836Z,655.00
2023-05-09T09:11:13.640Z,644.00
2023-05-09T09:12:13.589Z,614.00
2023-05-09T09:13:13.561Z,608.00
2023-05-09T09:14:13.493Z,654.00
2023-05-09T09:15:13.460Z,670.00
2023-05-09T09:16:13.496Z,672.00
2023-05-09T09:17:13.363Z,644.00
2023-05-09T09:18:13.372Z,627.00
2023-05-09T09:19:13.451Z,615.00
2023-05-09T09:20:13.985Z,637.00
2023-05-09T09:21:13.286Z,717.00
2023-05-09T09:22:13.153Z,656.00
2023-05-09T09:23:13.156Z,605.00
2023-05-09T09:24:13.166Z,607.00
2023-05-09T09:25:13.135Z,616.00
2023-05-09T09:26:13.119Z,661.00
2023-05-09T09:27:13.118Z,666.00
2023-05-09T09:28:14.081Z,718.00
2023-05-09T09:29:13.192Z,660.00
2023-05-09T09:30:13.314Z,700.00
2023-05-09T09:31:13.054Z,656.00
2023-05-09T09:32:13.129Z,651.00
2023-05-09T09:33:13.095Z,714.00
2023-05-09T09:34:13.061Z,717.00
2023-05-09T09:35:13.087Z,682.00
2023-05-09T09:36:13.076Z,749.00
2023-05-09T09:37:12.899Z,590.00
2023-05-09T09:38:12.957Z,669.00
2023-05-09T09:39:12.946Z,659.00
2023-05-09T09:40:13.132Z,659.00
2023-05-09T09:41:12.940Z,639.00
2023-05-09T09:42:13.591Z,764.00
2023-05-09T09:43:12.916Z,756.00
2023-05-09T09:44:12.874Z,758.00
2023-05-09T09:45:13.129Z,761.00
2023-05-09T09:46:12.877Z,780.00
2023-05-09T09:47:12.757Z,841.00
2023-05-09T09:48:12.794Z,820.00
2023-05-09T09:49:12.728Z,806.00
2023-05-09T09:50:12.909Z,724.00
2023-05-09T09:51:12.646Z,733.00
2023-05-09T09:52:12.764Z,732.00
2023-05-09T09:53:12.599Z,811.00
2023-05-09T09:54:12.597Z,788.00
2023-05-09T09:55:12.570Z,784.00
2023-05-09T09:56:12.499Z,792.00
2023-05-09T09:57:12.479Z,808.00
2023-05-09T09:58:12.427Z,821.00
2023-05-09T09:59:12.415Z,723.00
2023-05-09T10:00:12.415Z,706.00
2023-05-09T10:01:12.449Z,761.00
2023-05-09T10:02:12.352Z,789.00
2023-05-09T10:03:12.457Z,800.00
2023-05-09T10:04:12.395Z,803.00
2023-05-09T10:05:12.264Z,807.00
2023-05-09T10:06:12.217Z,839.00
2023-05-09T10:07:14.863Z,835.00
2023-05-09T10:08:12.283Z,845.00
2023-05-09T10:09:12.102Z,854.00
2023-05-09T10:10:12.184Z,860.00
2023-05-09T10:11:12.000Z,869.00
2023-05-09T10:12:12.014Z,877.00
2023-05-09T10:13:12.065Z,881.00
2023-05-09T10:14:11.989Z,875.00
2023-05-09T10:15:12.126Z,875.00
2023-05-09T10:16:11.862Z,881.00
2023-05-09T10:17:11.747Z,893.00
2023-05-09T10:18:11.680Z,891.00
2023-05-09T10:19:11.557Z,880.00
2023-05-09T10:20:11.528Z,879.00
2023-05-09T10:21:11.408Z,810.00
2023-05-09T10:22:11.366Z,813.00
2023-05-09T10:23:11.286Z,743.00
2023-05-09T10:24:11.320Z,726.00
2023-05-09T10:25:11.184Z,775.00
2023-05-09T10:26:11.139Z,839.00
2023-05-09T10:27:11.114Z,844.00
2023-05-09T10:28:11.002Z,860.00
2023-05-09T10:29:10.956Z,720.00
2023-05-09T10:30:10.876Z,826.00
2023-05-09T10:31:10.912Z,794.00
2023-05-09T10:32:10.817Z,777.00
2023-05-09T10:33:10.768Z,804.00
2023-05-09T10:34:10.727Z,813.00
2023-05-09T10:35:11.220Z,813.00
2023-05-09T10:36:10.604Z,849.00
2023-05-09T10:37:10.549Z,837.00
2023-05-09T10:38:10.723Z,838.00
2023-05-09T10:39:10.499Z,868.00
2023-05-09T10:40:10.480Z,855.00
2023-05-09T10:41:10.609Z,870.00
2023-05-09T10:42:10.324Z,873.00
2023-05-09T10:43:10.253Z,869.00
2023-05-09T10:44:10.247Z,872.00
2023-05-09T10:45:10.141Z,804.00
2023-05-09T10:46:10.148Z,883.00
2023-05-09T10:47:10.053Z,877.00
2023-05-09T10:48:09.960Z,880.00
2023-05-09T10:49:09.927Z,728.00
2023-05-09T10:50:09.852Z,746.00
2023-05-09T10:51:09.835Z,716.00
2023-05-09T10:52:09.758Z,808.00
2023-05-09T10:53:09.705Z,799.00
2023-05-09T10:54:09.660Z,809.00
2023-05-09T10:55:09.627Z,820.00
2023-05-09T10:56:09.739Z,831.00
2023-05-09T10:57:09.518Z,835.00
2023-05-09T10:58:09.451Z,832.00
2023-05-09T10:59:09.394Z,836.00
2023-05-09T11:00:09.331Z,826.00
2023-05-09T11:01:09.270Z,816.00
2023-05-09T11:02:09.227Z,797.00
2023-05-09T11:03:09.236Z,793.00
2023-05-09T11:04:09.116Z,788.00
2023-05-09T11:05:09.064Z,804.00
2023-05-09T11:06:09.109Z,800.00
2023-05-09T11:07:08.956Z,804.00
2023-05-09T11:08:08.896Z,722.00
2023-05-09T11:09:08.832Z,837.00
2023-05-09T11:10:08.836Z,848.00
2023-05-09T11:11:08.804Z,854.00
2023-05-09T11:12:08.813Z,850.00
2023-05-09T11:13:08.799Z,842.00
2023-05-09T11:14:08.712Z,832.00
2023-05-09T11:15:08.711Z,800.00
2023-05-09T11:16:08.750Z,786.00
2023-05-09T11:17:08.775Z,797.00
2023-05-09T11:18:08.771Z,718.00
2023-05-09T11:19:08.684Z,813.00
2023-05-09T11:20:08.652Z,807.00
2023-05-09T11:21:08.650Z,809.00
2023-05-09T11:22:08.669Z,811.00
2023-05-09T11:23:08.662Z,805.00
2023-05-09T11:24:08.674Z,762.00
2023-05-09T11:25:08.655Z,776.00
2023-05-09T11:26:08.670Z,810.00
2023-05-09T11:27:08.650Z,819.00
2023-05-09T11:28:08.711Z,801.00
2023-05-09T11:29:08.664Z,807.00
2023-05-09T11:30:08.694Z,820.00
2023-05-09T11:31:08.677Z,822.00
2023-05-09T11:32:08.659Z,829.00
2023-05-09T11:33:08.696Z,831.00
2023-05-09T11:34:08.534Z,836.00
2023-05-09T11:35:08.580Z,784.00
2023-05-09T11:36:09.173Z,777.00
2023-05-09T11:37:09.002Z,775.00
2023-05-09T11:38:08.470Z,780.00
2023-05-09T11:39:08.433Z,784.00
2023-05-09T11:40:08.413Z,781.00
2023-05-09T11:41:08.459Z,778.00
2023-05-09T11:42:08.421Z,775.00
2023-05-09T11:43:08.430Z,776.00
2023-05-09T11:44:08.516Z,777.00
2023-05-09T11:45:08.400Z,772.00
2023-05-09T11:46:08.405Z,769.00
2023-05-09T11:47:08.391Z,771.00
2023-05-09T11:48:08.439Z,769.00
2023-05-09T11:49:09.556Z,766.00
2023-05-09T11:50:08.345Z,763.00
2023-05-09T11:51:08.242Z,762.00
2023-05-09T11:52:08.186Z,759.00
2023-05-09T11:53:08.123Z,760.00
2023-05-09T11:54:08.063Z,755.00
2023-05-09T11:55:08.969Z,742.00
2023-05-09T11:56:07.973Z,735.00
2023-05-09T11:57:07.885Z,735.00
2023-05-09T11:58:07.836Z,730.00
2023-05-09T11:59:07.756Z,730.00
2023-05-09T12:00:07.793Z,729.00
2023-05-09T12:01:08.452Z,728.00
2023-05-09T12:02:08.173Z,725.00
2023-05-09T12:03:07.645Z,722.00
2023-05-09T12:04:07.501Z,719.00
2023-05-09T12:05:07.395Z,716.00
2023-05-09T12:06:07.324Z,716.00
2023-05-09T12:07:07.300Z,714.00
2023-05-09T12:08:07.223Z,713.00
2023-05-09T12:09:07.175Z,714.00
2023-05-09T12:10:07.121Z,708.00
2023-05-09T12:11:07.032Z,702.00
2023-05-09T12:12:07.052Z,695.00
2023-05-09T12:13:07.030Z,692.00
2023-05-09T12:14:07.000Z,689.00
2023-05-09T12:15:06.981Z,687.00
2023-05-09T12:16:07.106Z,682.00
2023-05-09T12:17:06.975Z,673.00
2023-05-09T12:18:06.994Z,667.00
2023-05-09T12:19:06.894Z,660.00
2023-05-09T12:20:06.897Z,658.00
2023-05-09T12:21:06.873Z,655.00
2023-05-09T12:22:07.024Z,652.00
2023-05-09T12:23:06.832Z,652.00
2023-05-09T12:24:06.826Z,653.00
2023-05-09T12:25:06.851Z,655.00
2023-05-09T12:26:06.844Z,651.00
2023-05-09T12:27:06.764Z,649.00